Time,TemperatureF,DewpointF,PressureIn,WindDirection,WindDirectionDegrees,WindSpeedMPH,WindSpeedGustMPH,Humidity,HourlyPrecipIn,Conditions,Clouds,dailyrainin,SolarRadiationWatts/m^2,SoftwareType,DateUTC
2013-01-27 00:22:00,25.0,19.0,-100.00,NNW,327,6.0,10.0,77,0.00,,,0.02,1.000000,,2013-01-27 08:22:00,
2013-01-27 00:31:00,25.0,19.0,-100.00,NNW,327,6.0,10.0,77,0.00,,,0.02,1.000000,,2013-01-27 08:31:00,
2013-01-27 00:41:00,25.0,19.0,-100.00,NNW,327,6.0,10.0,77,0.00,,,0.02,1.000000,,2013-01-27 08:41:00,
2013-01-27 00:52:00,25.0,19.0,-100.00,NNW,327,6.0,10.0,77,0.00,,,0.02,1.000000,,2013-01-27 08:52:00,
2013-01-27 01:21:00,26.0,19.0,-100.00,NNW,327,4.0,6.0,74,0.00,,,0.01,1.000000,,2013-01-27 09:21:00,
2013-01-27 01:32:00,26.0,19.0,-100.00,NNW,327,4.0,6.0,74,0.00,,,0.01,1.000000,,2013-01-27 09:32:00,
2013-01-27 01:41:00,26.0,19.0,-100.00,NNW,327,4.0,6.0,74,0.00,,,0.01,1.000000,,2013-01-27 09:41:00,
2013-01-27 01:51:00,26.0,19.0,-100.00,NNW,327,4.0,6.0,74,0.00,,,0.01,1.000000,,2013-01-27 09:51:00,
2013-01-27 02:21:00,24.0,19.0,-100.00,West,281,2.0,5.0,80,0.00,,,0.01,1.000000,,2013-01-27 10:21:00,
2013-01-27 02:31:00,24.0,19.0,-100.00,West,281,2.0,5.0,80,0.00,,,0.01,1.000000,,2013-01-27 10:31:00,
2013-01-27 02:41:00,24.0,19.0,-100.00,West,281,2.0,5.0,80,0.00,,,0.01,1.000000,,2013-01-27 10:41:00,
2013-01-27 02:51:00,24.0,19.0,-100.00,West,281,2.0,5.0,80,0.00,,,0.01,1.000000,,2013-01-27 10:51:00,
2013-01-27 03:21:00,25.0,19.0,-100.00,SSE,147,2.0,3.0,78,0.00,,,0.00,1.000000,,2013-01-27 11:21:00,
2013-01-27 03:32:00,25.0,19.0,-100.00,SSE,147,2.0,3.0,78,0.00,,,0.00,1.000000,,2013-01-27 11:32:00,
2013-01-27 03:42:00,25.0,19.0,-100.00,SSE,147,2.0,3.0,78,0.00,,,0.00,1.000000,,2013-01-27 11:42:00,
2013-01-27 03:52:00,25.0,19.0,-100.00,SSE,147,2.0,3.0,78,0.00,,,0.00,1.000000,,2013-01-27 11:52:00,
2013-01-27 04:21:00,21.0,18.0,-100.00,SE,127,2.0,4.0,89,0.00,,,0.00,1.000000,,2013-01-27 12:21:00,
2013-01-27 04:32:00,21.0,18.0,-100.00,SE,127,2.0,4.0,89,0.00,,,0.00,1.000000,,2013-01-27 12:32:00,
2013-01-27 04:42:00,21.0,18.0,-100.00,SE,127,2.0,4.0,89,0.00,,,0.00,1.000000,,2013-01-27 12:42:00,
2013-01-27 04:52:00,21.0,18.0,-100.00,SE,127,2.0,4.0,89,0.00,,,0.00,1.000000,,2013-01-27 12:52:00,
2013-01-27 05:22:00,24.0,20.0,-100.00,South,187,3.0,4.0,84,0.00,,,0.00,1.000000,,2013-01-27 13:22:00,
2013-01-27 05:32:00,24.0,20.0,-100.00,South,187,3.0,4.0,84,0.00,,,0.00,1.000000,,2013-01-27 13:32:00,
2013-01-27 05:42:00,24.0,20.0,-100.00,South,187,3.0,4.0,84,0.00,,,0.00,1.000000,,2013-01-27 13:42:00,
2013-01-27 05:52:00,24.0,20.0,-100.00,South,187,3.0,4.0,84,0.00,,,0.00,1.000000,,2013-01-27 13:52:00,
2013-01-27 06:22:00,19.0,18.0,-100.00,ESE,108,2.0,4.0,94,0.00,,,0.00,1.000000,,2013-01-27 14:22:00,
2013-01-27 06:32:00,19.0,18.0,-100.00,ESE,108,2.0,4.0,94,0.00,,,0.00,1.000000,,2013-01-27 14:32:00,
2013-01-27 06:42:00,19.0,18.0,-100.00,ESE,108,2.0,4.0,94,0.00,,,0.00,1.000000,,2013-01-27 14:42:00,
2013-01-27 06:52:00,19.0,18.0,-100.00,ESE,108,2.0,4.0,94,0.00,,,0.00,1.000000,,2013-01-27 14:52:00,
2013-01-27 07:22:00,22.0,19.0,-100.00,WSW,240,4.0,5.0,89,0.00,,,0.00,1.000000,,2013-01-27 15:22:00,
2013-01-27 07:32:00,22.0,19.0,-100.00,WSW,240,4.0,5.0,89,0.00,,,0.00,1.000000,,2013-01-27 15:32:00,
2013-01-27 07:42:00,22.0,19.0,-100.00,WSW,240,4.0,5.0,89,0.00,,,0.00,1.000000,,2013-01-27 15:42:00,
2013-01-27 07:52:00,22.0,19.0,-100.00,WSW,240,4.0,5.0,89,0.00,,,0.00,1.000000,,2013-01-27 15:52:00,
2013-01-27 08:21:00,19.0,17.0,-100.00,ESE,112,2.0,5.0,92,0.00,,,0.00,7.000000,,2013-01-27 16:21:00,
2013-01-27 08:32:00,19.0,17.0,-100.00,ESE,112,2.0,5.0,92,0.00,,,0.00,7.000000,,2013-01-27 16:32:00,
2013-01-27 08:42:00,19.0,17.0,-100.00,ESE,112,2.0,5.0,92,0.00,,,0.00,7.000000,,2013-01-27 16:42:00,
2013-01-27 08:52:00,19.0,17.0,-100.00,ESE,112,2.0,5.0,92,0.00,,,0.00,7.000000,,2013-01-27 16:52:00,
2013-01-27 09:21:00,29.0,24.0,-100.00,ESE,118,0.0,3.0,80,0.00,,,0.00,109.000000,,2013-01-27 17:21:00,
2013-01-27 09:32:00,29.0,24.0,-100.00,ESE,118,0.0,3.0,80,0.00,,,0.00,109.000000,,2013-01-27 17:32:00,
2013-01-27 09:42:00,29.0,24.0,-100.00,ESE,118,0.0,3.0,80,0.00,,,0.00,109.000000,,2013-01-27 17:42:00,
2013-01-27 09:52:00,29.0,24.0,-100.00,ESE,118,0.0,3.0,80,0.00,,,0.00,109.000000,,2013-01-27 17:52:00,
2013-01-27 10:22:00,31.0,23.0,-100.00,WSW,239,4.0,6.0,72,0.01,,,0.01,205.000000,,2013-01-27 18:22:00,
2013-01-27 10:32:00,31.0,23.0,-100.00,WSW,239,4.0,6.0,72,0.01,,,0.01,205.000000,,2013-01-27 18:32:00,
2013-01-27 10:42:00,31.0,23.0,-100.00,WSW,239,4.0,6.0,72,0.01,,,0.01,205.000000,,2013-01-27 18:42:00,
2013-01-27 10:51:00,31.0,23.0,-100.00,WSW,239,4.0,6.0,72,0.01,,,0.01,205.000000,,2013-01-27 18:51:00,
2013-01-27 11:22:00,34.0,20.0,-100.00,West,267,6.0,9.0,57,0.00,,,0.01,219.000000,,2013-01-27 19:22:00,
2013-01-27 11:32:00,34.0,20.0,-100.00,West,267,6.0,9.0,57,0.00,,,0.01,219.000000,,2013-01-27 19:32:00,
2013-01-27 11:41:00,34.0,20.0,-100.00,West,267,6.0,9.0,57,0.00,,,0.01,219.000000,,2013-01-27 19:41:00,
2013-01-27 11:51:00,34.0,20.0,-100.00,West,267,6.0,9.0,57,0.00,,,0.01,219.000000,,2013-01-27 19:51:00,
2013-01-27 12:22:00,34.0,20.0,-100.00,WSW,251,7.0,10.0,57,0.00,,,0.01,394.000000,,2013-01-27 20:22:00,
2013-01-27 12:32:00,34.0,20.0,-100.00,WSW,251,7.0,10.0,57,0.00,,,0.01,394.000000,,2013-01-27 20:32:00,
2013-01-27 12:42:00,34.0,20.0,-100.00,WSW,251,7.0,10.0,57,0.00,,,0.01,394.000000,,2013-01-27 20:42:00,
2013-01-27 12:52:00,34.0,20.0,-100.00,WSW,251,7.0,10.0,57,0.00,,,0.01,394.000000,,2013-01-27 20:52:00,
2013-01-27 13:22:00,37.0,21.0,-100.00,West,262,7.0,12.0,52,0.00,,,0.01,470.000000,,2013-01-27 21:22:00,
2013-01-27 13:32:00,37.0,21.0,-100.00,West,262,7.0,12.0,52,0.00,,,0.01,470.000000,,2013-01-27 21:32:00,
2013-01-27 13:42:00,37.0,21.0,-100.00,West,262,7.0,12.0,52,0.00,,,0.01,470.000000,,2013-01-27 21:42:00,
2013-01-27 13:52:00,37.0,21.0,-100.00,West,262,7.0,12.0,52,0.00,,,0.01,470.000000,,2013-01-27 21:52:00,
2013-01-27 14:21:00,35.0,20.0,-100.00,WSW,257,8.0,13.0,54,0.00,,,0.01,449.000000,,2013-01-27 22:21:00,
2013-01-27 14:32:00,35.0,20.0,-100.00,WSW,257,8.0,13.0,54,0.00,,,0.01,449.000000,,2013-01-27 22:32:00,
2013-01-27 14:42:00,35.0,20.0,-100.00,WSW,257,8.0,13.0,54,0.00,,,0.01,449.000000,,2013-01-27 22:42:00,
2013-01-27 14:51:00,35.0,20.0,-100.00,WSW,257,8.0,13.0,54,0.00,,,0.01,449.000000,,2013-01-27 22:51:00,
2013-01-27 15:11:00,32.0,22.0,-100.00,WSW,253,8.0,14.0,65,0.00,,,0.01,269.000000,,2013-01-27 23:11:00,
2013-01-27 15:21:00,32.0,22.0,-100.00,WSW,253,8.0,14.0,65,0.00,,,0.01,269.000000,,2013-01-27 23:21:00,
2013-01-27 15:32:00,32.0,22.0,-100.00,WSW,253,8.0,14.0,65,0.00,,,0.01,269.000000,,2013-01-27 23:32:00,
2013-01-27 15:41:00,32.0,22.0,-100.00,WSW,253,8.0,14.0,65,0.00,,,0.01,269.000000,,2013-01-27 23:41:00,
2013-01-27 15:52:00,32.0,22.0,-100.00,WSW,253,8.0,14.0,65,0.00,,,0.01,269.000000,,2013-01-27 23:52:00,
2013-01-27 16:21:00,31.0,22.0,-100.00,West,262,7.0,11.0,69,0.00,,,0.01,145.000000,,2013-01-28 00:21:00,
2013-01-27 16:32:00,31.0,22.0,-100.00,West,262,7.0,11.0,69,0.00,,,0.01,145.000000,,2013-01-28 00:32:00,
2013-01-27 16:41:00,31.0,22.0,-100.00,West,262,7.0,11.0,69,0.00,,,0.01,145.000000,,2013-01-28 00:41:00,
2013-01-27 16:51:00,31.0,22.0,-100.00,West,262,7.0,11.0,69,0.00,,,0.01,145.000000,,2013-01-28 00:51:00,
2013-01-27 17:21:00,29.0,21.0,-100.00,WSW,247,9.0,16.0,72,0.00,,,0.01,61.000000,,2013-01-28 01:21:00,
2013-01-27 17:32:00,29.0,21.0,-100.00,WSW,247,9.0,16.0,72,0.00,,,0.01,61.000000,,2013-01-28 01:32:00,
2013-01-27 17:42:00,29.0,21.0,-100.00,WSW,247,9.0,16.0,72,0.00,,,0.01,61.000000,,2013-01-28 01:42:00,
2013-01-27 17:51:00,29.0,21.0,-100.00,WSW,247,9.0,16.0,72,0.00,,,0.01,61.000000,,2013-01-28 01:51:00,
2013-01-27 18:21:00,28.0,22.0,-100.00,WSW,243,6.0,12.0,77,0.00,,,0.01,3.000000,,2013-01-28 02:21:00,
2013-01-27 18:32:00,28.0,22.0,-100.00,WSW,243,6.0,12.0,77,0.00,,,0.01,3.000000,,2013-01-28 02:32:00,
2013-01-27 18:41:00,28.0,22.0,-100.00,WSW,243,6.0,12.0,77,0.00,,,0.01,3.000000,,2013-01-28 02:41:00,
2013-01-27 18:52:00,28.0,22.0,-100.00,WSW,243,6.0,12.0,77,0.00,,,0.01,3.000000,,2013-01-28 02:52:00,
2013-01-27 19:21:00,27.0,23.0,-100.00,South,188,4.0,8.0,85,0.00,,,0.01,1.000000,,2013-01-28 03:21:00,
2013-01-27 19:32:00,27.0,23.0,-100.00,South,188,4.0,8.0,85,0.00,,,0.01,1.000000,,2013-01-28 03:32:00,
2013-01-27 19:41:00,27.0,23.0,-100.00,South,188,4.0,8.0,85,0.00,,,0.01,1.000000,,2013-01-28 03:41:00,
2013-01-27 19:52:00,27.0,23.0,-100.00,South,188,4.0,8.0,85,0.00,,,0.01,1.000000,,2013-01-28 03:52:00,
2013-01-27 20:21:00,27.0,23.0,-100.00,South,175,4.0,7.0,84,0.00,,,0.01,1.000000,,2013-01-28 04:21:00,
2013-01-27 20:31:00,27.0,23.0,-100.00,South,175,4.0,7.0,84,0.00,,,0.01,1.000000,,2013-01-28 04:31:00,
2013-01-27 20:41:00,27.0,23.0,-100.00,South,175,4.0,7.0,84,0.00,,,0.01,1.000000,,2013-01-28 04:41:00,
2013-01-27 20:52:00,27.0,23.0,-100.00,South,175,4.0,7.0,84,0.00,,,0.01,1.000000,,2013-01-28 04:52:00,
2013-01-27 21:21:00,27.0,23.0,-100.00,SSW,202,7.0,12.0,85,0.00,,,0.01,1.000000,,2013-01-28 05:21:00,
2013-01-27 21:31:00,27.0,23.0,-100.00,SSW,202,7.0,12.0,85,0.00,,,0.01,1.000000,,2013-01-28 05:31:00,
2013-01-27 21:41:00,27.0,23.0,-100.00,SSW,202,7.0,12.0,85,0.00,,,0.01,1.000000,,2013-01-28 05:41:00,
2013-01-27 21:52:00,27.0,23.0,-100.00,SSW,202,7.0,12.0,85,0.00,,,0.01,1.000000,,2013-01-28 05:52:00,
2013-01-27 22:21:00,27.0,22.0,-100.00,SSW,211,8.0,16.0,82,0.00,,,0.01,1.000000,,2013-01-28 06:21:00,
2013-01-27 22:32:00,27.0,22.0,-100.00,SSW,211,8.0,16.0,82,0.00,,,0.01,1.000000,,2013-01-28 06:32:00,
2013-01-27 22:42:00,27.0,22.0,-100.00,SSW,211,8.0,16.0,82,0.00,,,0.01,1.000000,,2013-01-28 06:42:00,
2013-01-27 22:52:00,27.0,22.0,-100.00,SSW,211,8.0,16.0,82,0.00,,,0.01,1.000000,,2013-01-28 06:52:00,
2013-01-27 23:21:00,27.0,24.0,-100.00,SSW,209,6.0,14.0,87,0.00,,,0.01,1.000000,,2013-01-28 07:21:00,
2013-01-27 23:31:00,27.0,24.0,-100.00,SSW,209,6.0,14.0,87,0.00,,,0.01,1.000000,,2013-01-28 07:31:00,
2013-01-27 23:41:00,27.0,24.0,-100.00,SSW,209,6.0,14.0,87,0.00,,,0.01,1.000000,,2013-01-28 07:41:00,
2013-01-27 23:51:00,27.0,24.0,-100.00,SSW,209,6.0,14.0,87,0.00,,,0.01,1.000000,,2013-01-28 07:51:00,